createdAt,value
2022-09-17T00:00:52.677Z,96921.34
2022-09-17T00:03:19.493Z,96919.19
2022-09-17T00:05:46.097Z,96925.25
2022-09-17T00:08:15.070Z,96924.28
2022-09-17T00:10:44.265Z,96931.41
2022-09-17T00:13:11.687Z,96936.91
2022-09-17T00:15:46.484Z,96935.59
2022-09-17T00:18:14.493Z,96944.75
2022-09-17T00:20:46.765Z,96947.09
2022-09-17T00:23:14.896Z,96949.31
2022-09-17T00:25:43.414Z,96945.88
2022-09-17T00:28:11.309Z,96944.31
2022-09-17T00:30:43.723Z,96946.53
2022-09-17T00:33:14.514Z,96956.28
2022-09-17T00:35:41.474Z,96949.44
2022-09-17T00:38:08.166Z,96958.69
2022-09-17T00:40:34.997Z,96957.88
2022-09-17T00:43:02.290Z,96960.94
2022-09-17T00:45:30.132Z,96955.63
2022-09-17T00:48:06.363Z,96958.97
2022-09-17T00:50:40.397Z,96954.34
2022-09-17T00:53:13.908Z,96958.53
2022-09-17T00:55:45.986Z,96964.13
2022-09-17T00:58:17.249Z,96965.97
2022-09-17T01:00:43.894Z,96962.38
2022-09-17T01:03:10.500Z,96957.75
2022-09-17T01:06:02.275Z,96947.38
2022-09-17T01:09:03.602Z,96951.09
2022-09-17T01:12:11.535Z,96945.56
2022-09-17T01:15:02.205Z,96937.59
2022-09-17T01:17:50.183Z,96944.38
2022-09-17T01:20:37.018Z,96948.41
2022-09-17T01:23:39.063Z,96950.72
2022-09-17T01:26:53.670Z,96956.13
2022-09-17T01:29:44.896Z,96957.53
2022-09-17T01:32:22.130Z,96949.00
2022-09-17T01:35:13.148Z,96949.84
2022-09-17T01:37:54.328Z,96931.84
2022-09-17T01:40:27.589Z,96937.34
2022-09-17T01:43:04.502Z,96938.91
2022-09-17T01:45:41.661Z,96935.75
2022-09-17T01:48:36.204Z,96942.84
2022-09-17T01:51:08.896Z,96943.44
2022-09-17T01:53:43.146Z,96944.28
2022-09-17T01:56:13.488Z,96944.28
2022-09-17T01:58:48.013Z,96949.22
2022-09-17T02:01:18.419Z,96949.81
2022-09-17T02:04:01.086Z,96954.69
2022-09-17T02:06:31.557Z,96949.53
2022-09-17T02:09:05.513Z,96952.41
2022-09-17T02:11:37.138Z,96956.00
2022-09-17T02:14:10.250Z,96957.28
2022-09-17T02:16:43.298Z,96954.53
2022-09-17T02:19:19.038Z,96952.56
2022-09-17T02:22:06.829Z,96964.13
2022-09-17T02:25:18.158Z,96956.75
2022-09-17T02:27:57.818Z,96946.25
2022-09-17T02:30:24.692Z,96936.34
2022-09-17T02:32:51.507Z,96923.56
2022-09-17T02:35:18.232Z,96927.78
2022-09-17T02:37:45.221Z,96938.91
2022-09-17T02:40:14.647Z,96933.41
2022-09-17T02:43:10.380Z,96933.69
2022-09-17T02:46:09.997Z,96939.44
2022-09-17T02:49:07.343Z,96928.50
2022-09-17T02:52:11.142Z,96925.00
2022-09-17T02:55:00.653Z,96923.72
2022-09-17T02:58:00.803Z,96916.78
2022-09-17T03:00:28.493Z,96909.75
2022-09-17T03:03:02.133Z,96901.13
2022-09-17T03:05:30.013Z,96888.88
2022-09-17T03:07:59.141Z,96879.25
2022-09-17T03:10:30.291Z,96891.06
2022-09-17T03:12:56.873Z,96899.09
2022-09-17T03:15:23.405Z,96888.00
2022-09-17T03:17:53.211Z,96883.81
2022-09-17T03:20:20.318Z,96896.66
2022-09-17T03:22:47.226Z,96906.84
2022-09-17T03:25:13.902Z,96909.00
2022-09-17T03:27:40.493Z,96901.47
2022-09-17T03:30:07.374Z,96895.53
2022-09-17T03:32:33.958Z,96903.66
2022-09-17T03:35:00.713Z,96919.06
2022-09-17T03:37:30.962Z,96922.81
2022-09-17T03:39:59.405Z,96925.41
2022-09-17T03:42:26.221Z,96908.13
2022-09-17T03:44:52.773Z,96900.16
2022-09-17T03:47:19.569Z,96900.44
2022-09-17T03:49:46.283Z,96906.22
2022-09-17T03:52:12.895Z,96907.13
2022-09-17T03:54:39.881Z,96905.09
2022-09-17T03:57:06.525Z,96901.66
2022-09-17T03:59:33.227Z,96896.03
2022-09-17T04:01:59.894Z,96906.38
2022-09-17T04:04:26.606Z,96919.59
2022-09-17T04:06:54.574Z,96922.94
2022-09-17T04:09:21.179Z,96909.84
2022-09-17T04:11:47.930Z,96910.00
2022-09-17T04:14:14.511Z,96905.97
2022-09-17T04:16:41.324Z,96896.03
2022-09-17T04:19:08.154Z,96899.19
2022-09-17T04:21:34.723Z,96903.63
2022-09-17T04:24:01.562Z,96931.28
2022-09-17T04:26:28.192Z,96938.63
2022-09-17T04:28:54.803Z,96946.41
2022-09-17T04:31:22.808Z,96950.44
2022-09-17T04:33:49.456Z,96936.47
2022-09-17T04:36:16.275Z,96933.44
2022-09-17T04:38:43.016Z,96926.69
2022-09-17T04:41:09.662Z,96924.97
2022-09-17T04:43:36.496Z,96933.59
2022-09-17T04:46:03.205Z,96940.22
2022-09-17T04:48:29.982Z,96944.09
2022-09-17T04:50:56.722Z,96944.25
2022-09-17T04:53:23.369Z,96945.69
2022-09-17T04:55:49.949Z,96948.59
2022-09-17T04:58:16.556Z,96973.03
2022-09-17T05:00:43.443Z,96966.88
2022-09-17T05:03:10.075Z,96972.47
2022-09-17T05:05:36.764Z,96966.56
2022-09-17T05:08:03.842Z,96966.56
2022-09-17T05:10:30.441Z,96972.59
2022-09-17T05:12:57.902Z,96967.72
2022-09-17T05:15:26.472Z,96970.03
2022-09-17T05:17:53.460Z,96955.63
2022-09-17T05:20:20.191Z,96957.78
2022-09-17T05:22:49.117Z,96967.56
2022-09-17T05:25:18.474Z,96969.31
2022-09-17T05:27:45.780Z,96968.31
2022-09-17T05:30:13.194Z,96977.78
2022-09-17T05:32:40.802Z,96990.75
2022-09-17T05:35:09.006Z,97003.72
2022-09-17T05:37:35.896Z,97002.56
2022-09-17T05:40:04.772Z,97014.66
2022-09-17T05:42:31.508Z,97017.94
2022-09-17T05:44:58.387Z,97022.69
2022-09-17T05:47:25.391Z,97025.28
2022-09-17T05:49:52.191Z,97026.72
2022-09-17T05:52:19.401Z,97016.06
2022-09-17T05:54:46.714Z,97017.38
2022-09-17T05:57:13.362Z,97012.06
2022-09-17T05:59:39.954Z,97017.38
2022-09-17T06:02:06.841Z,97014.06
2022-09-17T06:04:35.066Z,97024.28
2022-09-17T06:07:06.631Z,97018.09
2022-09-17T06:09:35.698Z,97028.72
2022-09-17T06:12:02.720Z,97034.91
2022-09-17T06:14:29.593Z,97024.97
2022-09-17T06:16:56.576Z,97023.28
2022-09-17T06:19:23.117Z,97020.38
2022-09-17T06:21:50.536Z,97007.72
2022-09-17T06:24:17.130Z,97009.84
2022-09-17T06:26:43.712Z,97006.13
2022-09-17T06:29:10.328Z,97008.59
2022-09-17T06:31:36.932Z,96999.66
2022-09-17T06:34:05.616Z,96996.22
2022-09-17T06:36:32.217Z,96995.50
2022-09-17T06:38:59.007Z,96989.44
2022-09-17T06:41:25.562Z,96988.28
2022-09-17T06:43:55.506Z,96991.09
2022-09-17T06:46:22.484Z,96973.28
2022-09-17T06:48:49.142Z,96960.19
2022-09-17T06:51:15.977Z,96968.97
2022-09-17T06:53:42.617Z,96985.38
2022-09-17T06:56:09.552Z,96969.56
2022-09-17T06:58:41.975Z,96940.38
2022-09-17T07:01:09.320Z,96949.84
2022-09-17T07:03:36.249Z,96957.34
2022-09-17T07:06:03.296Z,96962.66
2022-09-17T07:08:34.420Z,96971.91
2022-09-17T07:11:01.258Z,96988.25
2022-09-17T07:13:27.837Z,97002.19
2022-09-17T07:15:56.616Z,96989.09
2022-09-17T07:18:23.642Z,97006.50
2022-09-17T07:21:06.516Z,97021.03
2022-09-17T07:23:35.563Z,97009.84
2022-09-17T07:26:06.614Z,96999.94
2022-09-17T07:28:33.225Z,97010.16
2022-09-17T07:31:04.770Z,97032.63
2022-09-17T07:33:34.434Z,97042.84
2022-09-17T07:36:03.640Z,97058.81
2022-09-17T07:38:31.248Z,97082.41
2022-09-17T07:41:06.339Z,97107.03
2022-09-17T07:43:34.969Z,97116.84
2022-09-17T07:46:04.372Z,97115.69
2022-09-17T07:48:31.074Z,97112.97
2022-09-17T07:50:58.440Z,97099.56
2022-09-17T07:53:25.814Z,97092.81
2022-09-17T07:55:57.073Z,97103.31
2022-09-17T07:58:28.023Z,97097.53
2022-09-17T08:01:03.742Z,97104.59
2022-09-17T08:03:30.691Z,97121.31
2022-09-17T08:06:11.491Z,97120.44
2022-09-17T08:08:39.488Z,97118.28
2022-09-17T08:11:23.641Z,97129.69
2022-09-17T08:13:59.936Z,97112.94
2022-09-17T08:16:26.843Z,97094.97
2022-09-17T08:18:57.554Z,97090.94
2022-09-17T08:21:24.680Z,97105.59
2022-09-17T08:23:51.270Z,97119.44
2022-09-17T08:26:21.605Z,97125.78
2022-09-17T08:28:55.183Z,97120.59
2022-09-17T08:31:24.032Z,97122.31
2022-09-17T08:33:51.140Z,97113.97
2022-09-17T08:36:19.874Z,97117.72
2022-09-17T08:38:46.881Z,97108.66
2022-09-17T08:41:49.881Z,97099.28
2022-09-17T08:44:27.586Z,97094.53
2022-09-17T08:47:12.954Z,97082.88
2022-09-17T08:50:03.274Z,97069.78
2022-09-17T08:53:23.456Z,97080.72
2022-09-17T08:56:06.244Z,97100.56
2022-09-17T08:59:01.895Z,97103.19
2022-09-17T09:02:18.142Z,97116.44
2022-09-17T09:05:04.260Z,97115.28
2022-09-17T09:07:38.189Z,97110.50
2022-09-17T09:10:23.305Z,97126.50
2022-09-17T09:12:52.374Z,97136.31
2022-09-17T09:15:36.888Z,97132.41
2022-09-17T09:18:16.578Z,97124.19
2022-09-17T09:21:04.077Z,97114.66
2022-09-17T09:23:56.829Z,97112.66
2022-09-17T09:26:42.007Z,97098.41
2022-09-17T09:29:38.463Z,97091.75
2022-09-17T09:32:48.595Z,97098.53
2022-09-17T09:35:37.448Z,97097.50
2022-09-17T09:38:15.597Z,97100.25
2022-09-17T09:40:55.369Z,97098.97
2022-09-17T09:44:04.522Z,97095.09
2022-09-17T09:47:30.514Z,97089.91
2022-09-17T09:50:12.296Z,97099.13
2022-09-17T10:25:33.085Z,97082.34
2022-09-17T10:28:03.729Z,97071.69
2022-09-17T10:30:30.991Z,97083.75
2022-09-17T10:33:24.900Z,97080.00
2022-09-17T10:36:37.943Z,97089.75
2022-09-17T10:39:44.575Z,97097.97
2022-09-17T10:42:15.866Z,97094.34
2022-09-17T10:44:59.998Z,97100.56
2022-09-17T10:47:33.593Z,97090.75
2022-09-17T10:50:03.709Z,97078.09
2022-09-17T10:52:36.234Z,97072.94
2022-09-17T10:55:25.927Z,97052.09
2022-09-17T10:58:30.799Z,97046.44
2022-09-17T11:01:30.379Z,97053.75
2022-09-17T11:04:30.475Z,97059.66
2022-09-17T11:07:42.439Z,97054.41
2022-09-17T11:10:29.353Z,97056.28
2022-09-17T11:13:17.130Z,97048.25
2022-09-17T11:15:59.660Z,97055.63
2022-09-17T11:18:39.738Z,97056.91
2022-09-17T11:21:58.863Z,97059.41
2022-09-17T11:25:13.062Z,97060.16
2022-09-17T11:27:51.452Z,97048.50
2022-09-17T11:30:24.252Z,97053.41
2022-09-17T11:33:28.578Z,97042.31
2022-09-17T11:36:04.429Z,97042.06
2022-09-17T11:38:40.361Z,97034.56
2022-09-17T11:41:19.411Z,97051.56
2022-09-17T11:44:05.782Z,97050.13
2022-09-17T11:46:42.974Z,97049.28
2022-09-17T11:49:22.232Z,97057.38
2022-09-17T11:52:06.827Z,97049.91
2022-09-17T11:55:07.606Z,97058.81
2022-09-17T11:57:38.780Z,97060.38
2022-09-17T12:00:14.291Z,97059.28
2022-09-17T12:03:07.262Z,97044.09
2022-09-17T12:05:54.538Z,97045.38
2022-09-17T12:08:53.529Z,97042.97
2022-09-17T12:11:35.056Z,97031.91
2022-09-17T12:14:09.388Z,97011.44
2022-09-17T12:16:43.713Z,97007.84
2022-09-17T12:19:31.278Z,97005.16
2022-09-17T12:22:08.668Z,96990.06
2022-09-17T12:24:35.562Z,96985.06
2022-09-17T12:27:41.610Z,96981.19
2022-09-17T12:30:29.009Z,96979.31
2022-09-17T12:33:38.973Z,96978.38
2022-09-17T12:36:37.898Z,96996.78
2022-09-17T12:39:37.694Z,96982.81
2022-09-17T12:42:40.117Z,96997.09
2022-09-17T12:46:02.459Z,96998.81
2022-09-17T12:49:09.768Z,96992.34
2022-09-17T12:51:58.625Z,96996.53
2022-09-17T12:55:04.149Z,97010.59
2022-09-17T12:58:09.434Z,97008.66
2022-09-17T13:01:04.089Z,97016.69
2022-09-17T13:03:40.881Z,97021.88
2022-09-17T13:06:27.025Z,97018.72
2022-09-17T13:09:13.897Z,97028.13
2022-09-17T13:11:58.061Z,97022.41
2022-09-17T13:20:27.558Z,97012.69
2022-09-17T13:22:57.775Z,97009.00
2022-09-17T13:25:26.139Z,97009.44
2022-09-17T13:28:07.028Z,97011.09
2022-09-17T13:30:57.994Z,97022.50
2022-09-17T13:33:50.522Z,97022.72
2022-09-17T13:36:37.097Z,97026.09
2022-09-17T13:39:05.370Z,97026.88
2022-09-17T13:41:36.713Z,97026.72
2022-09-17T13:44:08.368Z,97032.88
2022-09-17T13:46:36.746Z,97026.22
2022-09-17T13:49:15.066Z,97034.25
2022-09-17T13:51:46.954Z,97031.31
2022-09-17T13:54:15.060Z,97030.56
2022-09-17T13:56:46.193Z,97050.09
2022-09-17T13:59:20.702Z,97041.19
2022-09-17T14:02:31.052Z,97063.16
2022-09-17T14:05:25.958Z,97060.66
2022-09-17T14:08:11.941Z,97058.50
2022-09-17T14:10:43.312Z,97068.47
2022-09-17T14:13:41.202Z,97079.84
2022-09-17T14:16:25.189Z,97077.75
2022-09-17T14:19:17.062Z,97088.78
2022-09-17T14:22:02.167Z,97082.13
2022-09-17T14:24:52.550Z,97083.88
2022-09-17T14:27:26.690Z,97081.06
2022-09-17T14:30:13.893Z,97085.94
2022-09-17T14:33:21.463Z,97078.19
2022-09-17T14:35:55.531Z,97075.88
2022-09-17T14:38:44.564Z,97078.34
2022-09-17T14:41:35.628Z,97073.91
2022-09-17T14:44:17.209Z,97066.47
2022-09-17T14:46:52.443Z,97069.16
2022-09-17T14:49:36.200Z,97060.84
2022-09-17T14:52:18.021Z,97062.59
2022-09-17T14:54:44.734Z,97070.06
2022-09-17T14:57:29.649Z,97074.38
2022-09-17T14:59:57.782Z,97072.81
2022-09-17T15:02:35.920Z,97077.75
2022-09-17T15:05:17.005Z,97071.31
2022-09-17T15:07:45.252Z,97066.88
2022-09-17T15:10:18.066Z,97062.84
2022-09-17T15:12:45.422Z,97058.38
2022-09-17T15:15:24.644Z,97047.19
2022-09-17T15:17:52.403Z,97046.28
2022-09-17T15:20:25.115Z,97033.19
2022-09-17T15:23:16.164Z,97045.88
2022-09-17T15:25:45.079Z,97036.38
2022-09-17T15:28:26.695Z,97045.56
2022-09-17T15:30:53.310Z,97044.59
2022-09-17T15:33:20.349Z,97041.13
2022-09-17T15:36:15.082Z,97050.91
2022-09-17T15:38:42.582Z,97042.28
2022-09-17T15:41:20.970Z,97040.97
2022-09-17T15:43:48.762Z,97038.53
2022-09-17T15:46:27.233Z,97045.28
2022-09-17T15:48:55.749Z,97047.44
2022-09-17T15:51:34.407Z,97043.28
2022-09-17T15:54:08.099Z,97042.13
2022-09-17T15:56:38.984Z,97049.75
2022-09-17T15:59:28.003Z,97041.56
2022-09-17T16:01:57.523Z,97046.41
2022-09-17T16:04:33.729Z,97054.47
2022-09-17T16:07:01.508Z,97056.03
2022-09-17T16:09:43.185Z,97061.50
2022-09-17T16:12:13.301Z,97066.69
2022-09-17T16:14:43.879Z,97063.78
2022-09-17T16:17:44.228Z,97061.69
2022-09-17T16:20:25.002Z,97054.19
2022-09-17T16:22:53.111Z,97064.69
2022-09-17T16:25:23.943Z,97063.97
2022-09-17T16:27:59.857Z,97060.63
2022-09-17T16:30:27.052Z,97068.97
2022-09-17T16:32:54.683Z,97063.78
2022-09-17T16:35:24.003Z,97069.88
2022-09-17T16:37:51.937Z,97079.63
2022-09-17T16:40:19.897Z,97075.63
2022-09-17T16:42:47.062Z,97079.78
2022-09-17T16:45:14.137Z,97082.25
2022-09-17T16:47:42.156Z,97085.09
2022-09-17T16:50:17.148Z,97084.09
2022-09-17T16:52:44.729Z,97084.81
2022-09-17T16:55:14.431Z,97075.47
2022-09-17T16:57:41.465Z,97081.66
2022-09-17T17:00:16.070Z,97084.25
2022-09-17T17:02:45.420Z,97071.88
2022-09-17T17:05:12.005Z,97079.97
2022-09-17T17:07:38.577Z,97081.22
2022-09-17T17:10:09.011Z,97066.84
2022-09-17T17:12:36.818Z,97074.50
2022-09-17T17:15:06.248Z,97069.16
2022-09-17T17:17:35.399Z,97073.59
2022-09-17T17:20:09.324Z,97069.88
2022-09-17T17:22:37.665Z,97068.72
2022-09-17T17:25:05.888Z,97064.69
2022-09-17T17:27:32.810Z,97067.13
2022-09-17T17:30:01.618Z,97067.13
2022-09-17T17:32:28.201Z,97064.84
2022-09-17T17:34:54.780Z,97073.44
2022-09-17T17:37:23.266Z,97084.03
2022-09-17T17:39:50.006Z,97082.97
2022-09-17T17:42:16.770Z,97094.91
2022-09-17T17:44:43.374Z,97089.38
2022-09-17T17:47:09.961Z,97098.53
2022-09-17T17:49:36.577Z,97103.97
2022-09-17T17:52:03.421Z,97096.63
2022-09-17T17:54:30.169Z,97101.78
2022-09-17T17:56:56.881Z,97118.19
2022-09-17T17:59:23.691Z,97110.56
2022-09-17T18:01:50.367Z,97128.38
2022-09-17T18:04:17.091Z,97119.94
2022-09-17T18:06:43.985Z,97131.69
2022-09-17T18:09:10.553Z,97139.31
2022-09-17T18:11:37.355Z,97148.06
2022-09-17T18:14:03.983Z,97154.19
2022-09-17T18:16:30.665Z,97160.63
2022-09-17T18:19:00.986Z,97163.09
2022-09-17T18:21:27.806Z,97175.94
2022-09-17T18:23:54.600Z,97181.56
2022-09-17T18:26:24.006Z,97190.34
2022-09-17T18:28:51.551Z,97193.06
2022-09-17T18:31:32.370Z,97208.28
2022-09-17T18:34:11.954Z,97208.63
2022-09-17T18:36:39.581Z,97220.19
2022-09-17T18:39:46.703Z,97223.25
2022-09-17T18:41:54.966Z,97221.94
2022-09-17T18:44:22.719Z,97211.03
2022-09-17T18:46:51.242Z,97222.78
2022-09-17T18:49:18.098Z,97224.22
2022-09-17T18:51:44.692Z,97227.28
2022-09-17T18:54:12.934Z,97227.03
2022-09-17T18:56:41.483Z,97230.84
2022-09-17T18:59:08.506Z,97230.31
2022-09-17T19:01:36.013Z,97232.66
2022-09-17T19:04:02.954Z,97235.53
2022-09-17T19:06:30.497Z,97237.47
2022-09-17T19:09:00.367Z,97245.97
2022-09-17T19:11:26.969Z,97247.25
2022-09-17T19:13:53.761Z,97247.84
2022-09-17T19:16:20.586Z,97246.16
2022-09-17T19:18:47.432Z,97245.97
2022-09-17T19:21:19.445Z,97249.59
2022-09-17T19:23:48.393Z,97241.66
2022-09-17T19:26:17.892Z,97236.25
2022-09-17T19:28:45.123Z,97237.53
2022-09-17T19:31:14.304Z,97238.09
2022-09-17T19:33:41.456Z,97242.94
2022-09-17T19:36:12.018Z,97245.44
2022-09-17T19:38:39.090Z,97238.38
2022-09-17T19:41:10.849Z,97230.78
2022-09-17T19:43:38.178Z,97233.88
2022-09-17T19:46:07.253Z,97235.06
2022-09-17T19:48:37.689Z,97222.97
2022-09-17T19:51:05.123Z,97228.75
2022-09-17T19:53:32.883Z,97220.44
2022-09-17T19:56:03.236Z,97216.63
2022-09-17T19:58:29.862Z,97213.66
2022-09-17T20:00:59.889Z,97202.69
2022-09-17T20:03:26.969Z,97206.69
2022-09-17T20:06:00.980Z,97204.28
2022-09-17T20:08:27.911Z,97199.47
2022-09-17T20:10:55.070Z,97202.91
2022-09-17T20:13:22.557Z,97203.81
2022-09-17T20:15:49.249Z,97203.63
2022-09-17T20:18:18.737Z,97201.06
2022-09-17T20:20:49.180Z,97188.16
2022-09-17T20:23:15.824Z,97193.75
2022-09-17T20:25:43.565Z,97202.34
2022-09-17T20:28:10.130Z,97203.81
2022-09-17T20:30:36.924Z,97203.69
2022-09-17T20:33:03.601Z,97209.56
2022-09-17T20:35:30.224Z,97199.38
2022-09-17T20:40:44.695Z,97202.81
2022-09-17T20:43:11.298Z,97202.25
2022-09-17T20:45:37.863Z,97203.47
2022-09-17T20:48:04.687Z,97215.81
2022-09-17T20:50:31.266Z,97203.94
2022-09-17T20:52:58.047Z,97205.97
2022-09-17T20:55:24.721Z,97209.81
2022-09-17T20:57:54.193Z,97205.06
2022-09-17T21:00:21.538Z,97205.81
2022-09-17T21:02:54.189Z,97216.66
2022-09-17T21:05:20.623Z,97206.53
2022-09-17T21:07:47.178Z,97217.44
2022-09-17T21:10:14.205Z,97206.13
2022-09-17T21:12:40.845Z,97214.63
2022-09-17T21:15:07.959Z,97209.25
2022-09-17T21:17:34.734Z,97216.53
2022-09-17T21:20:02.005Z,97219.59
2022-09-17T21:22:28.567Z,97216.88
2022-09-17T21:24:55.140Z,97223.13
2022-09-17T21:27:21.770Z,97221.81
2022-09-17T21:29:48.396Z,97223.63
2022-09-17T21:32:16.188Z,97217.44
2022-09-17T21:34:42.804Z,97232.84
2022-09-17T21:37:09.344Z,97225.94
2022-09-17T21:39:35.971Z,97232.84
2022-09-17T21:42:02.806Z,97233.56
2022-09-17T21:44:29.308Z,97236.59
2022-09-17T21:46:57.681Z,97236.28
2022-09-17T21:49:25.249Z,97227.56
2022-09-17T21:51:51.912Z,97234.28
2022-09-17T21:54:18.996Z,97227.00
2022-09-17T21:56:46.660Z,97236.06
2022-09-17T21:59:15.072Z,97226.09
2022-09-17T22:01:47.258Z,97237.00
2022-09-17T22:04:16.829Z,97227.38
2022-09-17T22:06:44.599Z,97219.13
2022-09-17T22:09:23.585Z,97217.88
2022-09-17T22:11:52.215Z,97210.22
2022-09-17T22:14:24.423Z,97212.56
2022-09-17T22:16:53.350Z,97208.13
2022-09-17T22:19:21.530Z,97202.84
2022-09-17T22:21:51.240Z,97197.00
2022-09-17T22:24:19.356Z,97199.09
2022-09-17T22:26:50.739Z,97202.13
2022-09-17T22:29:22.395Z,97197.63
2022-09-17T22:31:49.402Z,97210.56
2022-09-17T22:34:19.757Z,97198.41
2022-09-17T22:36:47.029Z,97192.50
2022-09-17T22:39:13.622Z,97196.75
2022-09-17T22:41:45.749Z,97201.31
2022-09-17T22:44:17.848Z,97190.06
2022-09-17T22:46:46.639Z,97185.00
2022-09-17T22:49:14.025Z,97185.59
2022-09-17T22:51:41.198Z,97191.09
2022-09-17T22:54:10.952Z,97185.03
2022-09-17T22:56:37.624Z,97192.19
2022-09-17T22:59:04.912Z,97186.88
2022-09-17T23:01:34.016Z,97189.44
2022-09-17T23:04:01.244Z,97190.88
2022-09-17T23:06:30.957Z,97191.09
2022-09-17T23:08:58.287Z,97185.66
2022-09-17T23:11:33.722Z,97193.38
2022-09-17T23:14:02.947Z,97191.34
2022-09-17T23:16:34.677Z,97193.50
2022-09-17T23:19:02.858Z,97181.50
2022-09-17T23:21:29.470Z,97180.19
2022-09-17T23:23:56.119Z,97176.59
2022-09-17T23:26:25.146Z,97180.19
2022-09-17T23:28:52.192Z,97168.06
2022-09-17T23:31:24.559Z,97169.53
2022-09-17T23:33:51.946Z,97168.25
2022-09-17T23:36:27.714Z,97168.31
2022-09-17T23:38:55.909Z,97170.66
2022-09-17T23:41:28.562Z,97171.28
2022-09-17T23:43:57.460Z,97172.16
2022-09-17T23:46:25.794Z,97170.88
2022-09-17T23:48:53.616Z,97171.84
2022-09-17T23:51:21.933Z,97175.13
2022-09-17T23:53:49.144Z,97176.41
2022-09-17T23:56:19.061Z,97191.31
2022-09-17T23:58:45.921Z,97176.78
